Time;durP1;ratioP1;P1;durP2;ratioP2;P2;SDS_P1;SDS_P2;PMS_P1;PMS_P2;Temp;Humidity;BMP_temperature;BMP_pressure;BME280_temperature;BME280_humidity;BME280_pressure;Samples;Min_cycle;Max_cycle;Signal;HPM_P1;HPM_P2
2022/04/30 00:00:34;;;;;;;16.60;8.63;;;;;;;;;;5116933;28;20053;-89
2022/04/30 00:03:24;;;;;;;19.95;9.02;;;;;;;;;;5117010;28;20110;-87
2022/04/30 00:06:09;;;;;;;14.75;9.45;;;;;;;;;;5105933;27;20491;-89
2022/04/30 00:08:54;;;;;;;13.85;8.00;;;;;;;;;;5121716;27;20050;-88
2022/04/30 00:11:42;;;;;;;16.15;9.13;;;;;;;;;;5121205;27;20030;-89
2022/04/30 00:14:29;;;;;;;15.75;8.50;;;;;;;;;;5136388;27;20099;-88
2022/04/30 00:17:14;;;;;;;14.85;8.63;;;;;;;;;;5107366;27;20046;-89
2022/04/30 00:20:03;;;;;;;15.70;8.73;;;;;;;;;;5121349;27;20536;-88
2022/04/30 00:22:47;;;;;;;16.70;8.55;;;;;;;;;;5136777;27;20058;-88
2022/04/30 00:25:35;;;;;;;13.40;8.68;;;;;;;;;;5106414;27;20073;-88
2022/04/30 00:28:22;;;;;;;12.15;7.95;;;5.40;99.90;;;;;;5136268;27;20042;-88
2022/04/30 00:31:07;;;;;;;16.60;9.23;;;;;;;;;;5121724;27;20481;-88
2022/04/30 00:33:51;;;;;;;13.98;8.00;;;;;;;;;;5107027;27;20037;-88
2022/04/30 00:36:36;;;;;;;16.58;8.45;;;;;;;;;;5135971;27;20089;-88
2022/04/30 00:39:21;;;;;;;15.25;8.65;;;;;;;;;;5120581;27;20034;-88
2022/04/30 00:42:06;;;;;;;14.40;7.57;;;;;;;;;;5106748;27;20043;-88
2022/04/30 00:44:50;;;;;;;13.50;7.93;;;;;;;;;;5121011;27;20145;-88
2022/04/30 00:47:35;;;;;;;16.15;7.95;;;;;;;;;;5105904;27;20050;-88
2022/04/30 00:50:21;;;;;;;17.33;9.10;;;;;;;;;;5135928;27;20119;-90
2022/04/30 00:53:07;;;;;;;13.65;7.78;;;;;;;;;;5120858;27;20033;-88
2022/04/30 00:55:51;;;;;;;11.30;7.60;;;;;;;;;;5120594;27;20076;-88
2022/04/30 00:58:39;;;;;;;12.05;6.63;;;5.40;99.90;;;;;;5119809;27;20119;-89
2022/04/30 01:01:24;;;;;;;15.30;7.22;;;;;;;;;;5120138;27;20062;-89
2022/04/30 01:04:09;;;;;;;11.77;6.95;;;;;;;;;;5120849;27;20046;-88
2022/04/30 01:07:07;;;;;;;15.07;7.40;;;5.40;99.90;;;;;;5120574;27;20074;-89
2022/04/30 01:09:53;;;;;;;15.57;8.00;;;;;;;;;;5135959;27;20038;-89
2022/04/30 01:12:39;;;;;;;15.50;7.13;;;;;;;;;;5135252;27;20080;-88
2022/04/30 01:15:25;;;;;;;14.25;7.32;;;;;;;;;;5135186;27;20041;-90
2022/04/30 01:18:10;;;;;;;17.88;7.25;;;;;;;;;;5104701;27;20118;-88
2022/04/30 01:21:10;;;;;;;13.88;7.45;;;5.40;99.90;;;;;;5135954;27;20038;-88
2022/04/30 01:23:55;;;;;;;11.63;6.63;;;;;;;;;;5120354;27;20078;-88
2022/04/30 01:26:40;;;;;;;12.07;6.90;;;;;;;;;;5105242;27;20082;-88
2022/04/30 01:29:25;;;;;;;13.55;6.85;;;;;;;;;;5105765;27;20394;-90
2022/04/30 01:38:17;;;;;;;16.35;7.20;;;;;;;;;;5135407;27;20091;-89
2022/04/30 01:41:02;;;;;;;9.80;6.55;;;;;;;;;;5135650;27;20108;-88
2022/04/30 01:43:47;;;;;;;13.13;6.63;;;;;;;;;;5119304;27;20179;-89
2022/04/30 01:46:31;;;;;;;15.20;7.20;;;;;;;;;;5118966;27;20073;-89
2022/04/30 01:49:16;;;;;;;14.13;6.78;;;;;;;;;;5119581;27;20038;-88
2022/04/30 01:52:09;;;;;;;12.18;6.57;;;5.40;99.90;;;;;;5119660;27;20059;-89
2022/04/30 01:54:54;;;;;;;10.23;6.30;;;;;;;;;;5129615;27;20037;-88
2022/04/30 01:57:39;;;;;;;15.82;7.22;;;;;;;;;;5139488;27;20341;-89
2022/04/30 02:00:23;;;;;;;15.15;7.40;;;;;;;;;;5139936;27;20088;-89
2022/04/30 02:03:08;;;;;;;13.57;6.13;;;;;;;;;;5139781;27;20092;-88
2022/04/30 02:05:55;;;;;;;13.88;7.20;;;;;;;;;;5139551;27;20422;-89
2022/04/30 02:08:40;;;;;;;13.02;7.28;;;;;;;;;;5139371;27;20034;-88
2022/04/30 02:11:25;;;;;;;12.25;6.80;;;;;;;;;;5125184;27;20498;-89
2022/04/30 02:14:13;;;;;;;14.40;7.05;;;5.50;99.90;;;;;;5139955;27;20053;-88
2022/04/30 02:17:01;;;;;;;15.60;7.88;;;;;;;;;;5139730;27;20046;-89
2022/04/30 02:22:50;;;;;;;14.57;6.72;;;;;;;;;;5154860;27;20045;-88
2022/04/30 02:25:35;;;;;;;14.85;7.43;;;;;;;;;;5139027;27;20045;-89
2022/04/30 02:28:20;;;;;;;18.45;8.07;;;;;;;;;;5139459;27;20432;-88
2022/04/30 02:31:05;;;;;;;14.77;7.72;;;;;;;;;;5139646;27;20055;-88
2022/04/30 02:33:49;;;;;;;15.65;8.32;;;;;;;;;;5139259;27;20065;-89
2022/04/30 02:36:34;;;;;;;15.27;7.57;;;;;;;;;;5139266;27;20067;-89
2022/04/30 02:39:19;;;;;;;14.90;7.63;;;;;;;;;;5125469;27;20077;-88
2022/04/30 02:42:03;;;;;;;12.20;7.82;;;;;;;;;;5139856;27;20060;-90
2022/04/30 02:44:48;;;;;;;16.73;7.15;;;;;;;;;;5139075;27;20045;-89
2022/04/30 02:47:33;;;;;;;11.85;7.40;;;;;;;;;;5143934;27;20092;-87
2022/04/30 02:50:18;;;;;;;11.23;6.95;;;;;;;;;;5146962;27;20083;-88
2022/04/30 02:53:03;;;;;;;10.55;6.95;;;;;;;;;;5146892;27;20088;-88
2022/04/30 02:55:47;;;;;;;11.00;6.85;;;;;;;;;;5145725;27;20071;-89
2022/04/30 03:01:36;;;;;;;11.93;6.82;;;;;;;;;;5142085;27;20083;-89
2022/04/30 03:04:21;;;;;;;13.75;7.07;;;;;;;;;;5139218;27;20041;-88
2022/04/30 03:07:09;;;;;;;12.73;7.22;;;;;;;;;;5124755;27;20041;-89
2022/04/30 03:09:53;;;;;;;14.60;8.35;;;;;;;;;;5138312;27;20029;-88
2022/04/30 03:12:38;;;;;;;12.68;7.53;;;;;;;;;;5138756;27;20080;-90
2022/04/30 03:15:22;;;;;;;10.30;7.13;;;;;;;;;;5138928;27;20038;-89
2022/04/30 03:24:05;;;;;;;12.80;7.95;;;;;;;;;;5153917;27;20065;-87
2022/04/30 03:26:52;;;;;;;14.95;8.38;;;;;;;;;;5123464;27;20171;-88
2022/04/30 03:29:37;;;;;;;15.98;7.38;;;;;;;;;;5138479;27;20166;-88
2022/04/30 03:32:24;;;;;;;13.70;7.93;;;;;;;;;;5138591;27;20083;-88
2022/04/30 03:35:09;;;;;;;14.63;7.00;;;;;;;;;;5138376;27;20080;-87
2022/04/30 03:37:54;;;;;;;13.27;7.85;;;;;;;;;;5137757;27;20049;-87
2022/04/30 03:40:41;;;;;;;11.02;7.40;;;;;;;;;;5123378;27;20048;-87
2022/04/30 03:43:30;;;;;;;15.43;8.63;;;;;;;;;;5138320;27;20110;-87
2022/04/30 03:46:15;;;;;;;15.10;9.07;;;;;;;;;;5139010;27;20402;-88
2022/04/30 03:49:00;;;;;;;21.15;7.65;;;;;;;;;;5137869;27;20167;-88
2022/04/30 03:51:45;;;;;;;11.90;7.70;;;;;;;;;;5137895;27;20034;-89
2022/04/30 03:54:30;;;;;;;18.20;8.57;;;;;;;;;;5124074;27;20122;-88
2022/04/30 03:57:15;;;;;;;14.77;7.20;;;;;;;;;;5124007;27;20410;-88
2022/04/30 04:00:00;;;;;;;15.27;7.78;;;;;;;;;;5137758;27;20045;-88
2022/04/30 04:02:45;;;;;;;12.07;8.30;;;;;;;;;;5153920;27;20103;-90
2022/04/30 04:05:29;;;;;;;18.83;8.35;;;;;;;;;;5138463;27;20042;-88
2022/04/30 04:08:14;;;;;;;16.70;7.82;;;;;;;;;;5138044;27;20498;-88
2022/04/30 04:10:58;;;;;;;12.27;7.47;;;;;;;;;;5137509;27;20033;-88
2022/04/30 04:19:50;;;;;;;15.07;6.90;;;;;;;;;;5153175;27;20131;-88
2022/04/30 04:22:35;;;;;;;12.65;7.55;;;;;;;;;;5138183;27;20044;-88
2022/04/30 04:28:24;;;;;;;12.43;7.57;;;;;;;;;;5152949;27;20248;-88
2022/04/30 04:31:08;;;;;;;15.73;8.20;;;;;;;;;;5120927;27;20033;-88
2022/04/30 04:33:53;;;;;;;11.85;7.05;;;;;;;;;;5152612;27;20075;-89
2022/04/30 04:36:38;;;;;;;12.75;7.43;;;;;;;;;;5123152;27;20113;-88
2022/04/30 04:39:23;;;;;;;19.60;12.27;;;;;;;;;;5137513;27;20596;-85
2022/04/30 04:42:07;;;;;;;9.90;6.68;;;;;;;;;;5137851;27;20394;-87
2022/04/30 04:44:52;;;;;;;12.98;8.23;;;;;;;;;;5138026;27;20542;-87
2022/04/30 04:47:41;;;;;;;18.75;8.55;;;5.50;99.90;;;;;;5161124;27;20060;-86
2022/04/30 04:50:26;;;;;;;12.02;7.85;;;;;;;;;;5148695;27;20037;-90
2022/04/30 04:53:21;;;;;;;14.73;8.02;;;;;;;;;;5125765;27;20068;-90
2022/04/30 04:56:09;;;;;;;14.75;8.25;;;;;;;;;;5141454;27;20117;-89
2022/04/30 04:58:54;;;;;;;15.45;8.30;;;;;;;;;;5123367;27;20038;-90
2022/04/30 05:01:39;;;;;;;16.80;8.57;;;;;;;;;;5141449;27;20030;-87
2022/04/30 05:04:24;;;;;;;13.68;8.38;;;;;;;;;;5141194;27;20045;-85
2022/04/30 05:07:09;;;;;;;10.70;8.30;;;;;;;;;;5140393;27;20079;-86
2022/04/30 05:09:53;;;;;;;15.77;8.02;;;;;;;;;;5143294;27;20046;-87
2022/04/30 05:12:37;;;;;;;17.95;9.30;;;;;;;;;;5141569;27;20075;-87
2022/04/30 05:15:22;;;;;;;15.07;8.05;;;;;;;;;;5141153;27;20406;-88
2022/04/30 05:18:07;;;;;;;13.40;8.38;;;;;;;;;;5140140;27;20058;-88
2022/04/30 05:20:53;;;;;;;15.95;8.38;;;;;;;;;;5141108;27;20042;-89
2022/04/30 05:23:38;;;;;;;15.85;8.23;;;;;;;;;;5141003;27;20042;-88
2022/04/30 05:26:22;;;;;;;14.63;7.78;;;;;;;;;;5140677;27;20060;-87
2022/04/30 05:29:07;;;;;;;12.75;8.07;;;;;;;;;;5125553;27;20049;-86
2022/04/30 05:31:51;;;;;;;16.08;8.52;;;;;;;;;;5140447;27;20486;-85
2022/04/30 05:34:36;;;;;;;13.68;7.90;;;;;;;;;;5126260;27;20084;-85
2022/04/30 05:37:20;;;;;;;9.98;7.28;;;;;;;;;;5139894;27;20070;-85
2022/04/30 05:40:08;;;;;;;12.75;9.20;;;;;;;;;;5139626;27;20107;-86
2022/04/30 05:42:53;;;;;;;13.43;8.05;;;;;;;;;;5140810;27;20579;-88
2022/04/30 05:45:37;;;;;;;12.30;7.72;;;;;;;;;;5140450;27;20115;-87
2022/04/30 05:48:22;;;;;;;12.50;7.70;;;;;;;;;;5125338;27;20049;-87
2022/04/30 05:51:07;;;;;;;12.88;7.78;;;;;;;;;;5135507;27;20052;-87
2022/04/30 05:53:51;;;;;;;16.20;8.30;;;;;;;;;;5120262;27;20034;-90
2022/04/30 05:56:36;;;;;;;13.25;8.13;;;;;;;;;;5135027;27;20038;-87
2022/04/30 05:59:21;;;;;;;13.65;7.90;;;;;;;;;;5119019;27;20176;-88
2022/04/30 06:02:05;;;;;;;11.65;7.90;;;;;;;;;;5118889;27;20083;-89
2022/04/30 06:04:50;;;;;;;16.15;8.50;;;;;;;;;;5119066;27;20059;-89
2022/04/30 06:07:36;;;;;;;20.00;8.80;;;;;;;;;;5119213;27;20165;-88
2022/04/30 06:10:21;;;;;;;11.82;7.70;;;;;;;;;;5117852;27;20529;-88
2022/04/30 06:13:08;;;;;;;13.85;8.40;;;;;;;;;;5118407;27;20386;-89
2022/04/30 06:15:52;;;;;;;9.32;6.97;;;;;;;;;;5118876;27;20485;-88
2022/04/30 06:18:37;;;;;;;16.13;7.75;;;;;;;;;;5135157;27;20440;-89
2022/04/30 06:21:23;;;;;;;16.63;7.97;;;;;;;;;;5119217;27;20080;-88
2022/04/30 06:24:08;;;;;;;13.25;7.18;;;;;;;;;;5118895;27;20172;-88
2022/04/30 06:26:53;;;;;;;11.40;7.90;;;;;;;;;;5119317;27;20493;-89
2022/04/30 06:29:38;;;;;;;13.65;8.40;;;;;;;;;;5119416;27;20034;-88
2022/04/30 06:32:23;;;;;;;13.32;8.07;;;;;;;;;;5104492;27;20077;-88
2022/04/30 06:35:08;;;;;;;13.70;7.97;;;;;;;;;;5118837;27;20485;-89
2022/04/30 06:37:52;;;;;;;16.70;7.90;;;;;;;;;;5104992;27;20108;-88
2022/04/30 06:40:37;;;;;;;13.27;7.82;;;;;;;;;;5118860;27;20084;-88
2022/04/30 06:43:22;;;;;;;15.90;8.00;;;;;;;;;;5118582;27;20434;-88
2022/04/30 06:46:07;;;;;;;15.80;8.40;;;;;;;;;;5118721;27;20513;-90
2022/04/30 06:48:52;;;;;;;21.83;8.65;;;;;;;;;;5118862;27;20058;-89
2022/04/30 06:51:36;;;;;;;12.27;7.50;;;;;;;;;;5118669;27;20042;-88
2022/04/30 06:57:25;;;;;;;15.68;8.70;;;;;;;;;;5133664;27;20102;-88
2022/04/30 07:03:15;;;;;;;11.63;7.88;;;;;;;;;;5133704;27;20110;-88
2022/04/30 07:06:03;;;;;;;16.33;8.07;;;;;;;;;;5104282;27;20081;-89
2022/04/30 07:08:48;;;;;;;12.80;8.18;;;;;;;;;;5118677;27;20042;-89
2022/04/30 07:11:33;;;;;;;15.23;8.65;;;;;;;;;;5117853;27;20076;-88
2022/04/30 07:14:17;;;;;;;15.48;7.38;;;;;;;;;;5118273;27;20065;-88
2022/04/30 07:17:06;;;;;;;15.55;7.72;;;;;;;;;;5133781;27;20088;-88
2022/04/30 07:19:53;;;;;;;16.42;8.20;;;;;;;;;;5134435;27;20063;-89
2022/04/30 07:22:38;;;;;;;10.60;8.02;;;;;;;;;;5134028;27;20038;-89
2022/04/30 07:25:23;;;;;;;11.70;6.68;;;;;;;;;;5103505;27;20095;-89
2022/04/30 07:28:07;;;;;;;13.90;7.25;;;;;;;;;;5118339;27;20441;-88
2022/04/30 07:30:52;;;;;;;14.25;6.88;;;;;;;;;;5134160;27;20037;-89
2022/04/30 07:33:36;;;;;;;12.68;7.53;;;;;;;;;;5117739;27;20110;-88
2022/04/30 07:36:21;;;;;;;10.00;6.47;;;;;;;;;;5117765;27;20463;-89
2022/04/30 07:39:06;;;;;;;16.58;6.85;;;;;;;;;;5118258;27;20046;-88
2022/04/30 07:41:53;;;;;;;18.25;7.05;;;;;;;;;;5118182;28;20030;-89
2022/04/30 07:44:39;;;;;;;13.18;6.40;;;;;;;;;;5118055;28;20038;-88
2022/04/30 07:47:25;;;;;;;12.32;6.28;;;;;;;;;;5117772;28;20146;-88
2022/04/30 07:50:13;;;;;;;9.40;5.10;;;;;;;;;;5118209;28;20429;-89
2022/04/30 07:52:57;;;;;;;10.35;5.88;;;;;;;;;;5104748;28;20100;-88
2022/04/30 07:55:45;;;;;;;11.18;5.30;;;;;;;;;;5118816;28;20083;-88
2022/04/30 07:58:30;;;;;;;9.68;5.30;;;;;;;;;;5118657;28;20147;-89
2022/04/30 08:01:14;;;;;;;11.63;6.25;;;;;;;;;;5131086;28;20042;-88
2022/04/30 08:03:59;;;;;;;10.23;5.75;;;;;;;;;;5136758;28;20062;-89
2022/04/30 08:06:44;;;;;;;12.15;6.20;;;;;;;;;;5140561;28;20075;-89
2022/04/30 08:09:29;;;;;;;12.50;6.07;;;;;;;;;;5138637;28;20043;-88
2022/04/30 08:12:14;;;;;;;10.50;5.68;;;;;;;;;;5120454;28;20084;-88
2022/04/30 08:14:58;;;;;;;9.55;6.07;;;;;;;;;;5118428;28;20038;-88
2022/04/30 08:17:43;;;;;;;10.32;5.85;;;;;;;;;;5117772;28;20069;-89
2022/04/30 08:20:27;;;;;;;13.00;5.47;;;;;;;;;;5117517;28;20070;-88
2022/04/30 08:23:12;;;;;;;9.60;5.43;;;;;;;;;;5117984;28;20039;-88
2022/04/30 08:26:00;;;;;;;9.63;6.05;;;;;;;;;;5118217;27;20083;-88
2022/04/30 08:28:47;;;;;;;10.48;5.60;;;;;;;;;;5124839;27;20152;-87
2022/04/30 08:31:32;;;;;;;8.40;5.45;;;;;;;;;;5140622;27;20058;-89
2022/04/30 08:34:16;;;;;;;9.65;5.47;;;;;;;;;;5122238;27;20076;-89
2022/04/30 08:37:01;;;;;;;10.77;5.63;;;;;;;;;;5121914;27;20452;-89
2022/04/30 08:39:46;;;;;;;10.38;5.95;;;;;;;;;;5121313;27;20394;-90
2022/04/30 08:42:34;;;;;;;8.85;5.00;;;;;;;;;;5121256;27;20080;-91
2022/04/30 08:45:22;;;;;;;10.30;5.53;;;;;;;;;;5122344;27;20053;-89
2022/04/30 08:48:08;;;;;;;5.88;4.85;;;;;;;;;;5121427;27;20042;-90
2022/04/30 08:50:54;;;;;;;8.77;4.65;;;;;;;;;;5136920;27;20038;-89
2022/04/30 08:53:39;;;;;;;15.93;4.05;;;;;;;;;;5120829;27;20532;-88
2022/04/30 08:56:24;;;;;;;8.40;4.60;;;;;;;;;;5120814;27;20537;-90
2022/04/30 08:59:09;;;;;;;12.02;4.30;;;;;;;;;;5121111;27;20050;-89
2022/04/30 09:01:58;;;;;;;7.18;3.47;;;13.50;99.90;;;;;;5136503;27;20114;-88
2022/04/30 09:04:46;;;;;;;5.32;3.13;;;;;;;;;;5136934;27;20113;-89
2022/04/30 09:07:33;;;;;;;7.90;3.72;;;;;;;;;;5120555;27;20063;-89
2022/04/30 09:10:21;;;;;;;6.68;3.40;;;;;;;;;;5120800;27;20030;-88
2022/04/30 09:13:17;;;;;;;4.78;3.25;;;;;;;;;;5136676;27;20084;-89
2022/04/30 09:16:01;;;;;;;6.28;3.30;;;;;;;;;;5136322;27;20041;-89
2022/04/30 09:18:46;;;;;;;6.25;3.00;;;;;;;;;;5120144;27;20066;-88
2022/04/30 09:21:31;;;;;;;5.90;3.70;;;;;;;;;;5120217;27;20524;-88
2022/04/30 09:24:17;;;;;;;5.85;3.25;;;;;;;;;;5120659;27;20497;-89
2022/04/30 09:27:05;;;;;;;9.20;3.67;;;;;;;;;;5120673;27;20119;-89
2022/04/30 09:29:55;;;;;;;7.43;3.53;;;;;;;;;;5120115;27;20041;-89
2022/04/30 09:32:43;;;;;;;5.82;3.10;;;;;;;;;;5119993;27;20042;-88
2022/04/30 09:38:38;;;;;;;6.53;3.28;;;;;;;;;;5134927;27;20088;-89
2022/04/30 09:41:24;;;;;;;6.00;3.35;;;;;;;;;;5120219;27;20510;-89
2022/04/30 09:44:17;;;;;;;9.63;3.80;;;;;;;;;;5119956;27;20093;-90
2022/04/30 09:47:02;;;;;;;6.03;3.30;;;;;;;;;;5120239;27;20541;-88
2022/04/30 09:55:55;;;;;;;4.20;2.67;;;;;;;;;;5135212;27;20153;-88
2022/04/30 09:58:41;;;;;;;3.45;1.77;;;;;;;;;;5119185;27;20062;-88
2022/04/30 10:01:27;;;;;;;4.43;2.30;;;;;;;;;;5135929;27;20080;-89
2022/04/30 10:04:13;;;;;;;4.78;2.58;;;;;;;;;;5119522;27;20034;-89
2022/04/30 10:07:01;;;;;;;6.03;2.63;;;;;;;;;;5119570;27;20038;-90
2022/04/30 10:09:51;;;;;;;4.45;2.10;;;;;;;;;;5119623;27;20108;-88
2022/04/30 10:12:39;;;;;;;3.88;1.95;;;;;;;;;;5119363;27;20168;-90
2022/04/30 10:15:25;;;;;;;4.03;2.40;;;;;;;;;;5119189;27;20431;-88
2022/04/30 10:18:12;;;;;;;4.35;2.78;;;;;;;;;;5119359;27;20536;-88
2022/04/30 10:21:00;;;;;;;4.32;2.33;;;;;;;;;;5119077;27;20065;-89
2022/04/30 10:23:45;;;;;;;5.45;2.90;;;;;;;;;;5118699;27;20045;-89
2022/04/30 10:26:30;;;;;;;4.95;2.90;;;;;;;;;;5119304;27;20034;-88
2022/04/30 10:29:17;;;;;;;7.15;3.47;;;;;;;;;;5119204;27;20053;-88
2022/04/30 10:32:02;;;;;;;10.45;3.20;;;;;;;;;;5118925;27;20041;-88
2022/04/30 10:34:55;;;;;;;7.75;2.83;;;;;;;;;;5119874;27;20164;-89
2022/04/30 10:37:40;;;;;;;3.50;2.55;;;;;;;;;;5118611;27;20062;-89
2022/04/30 10:40:25;;;;;;;6.22;3.17;;;;;;;;;;5118962;27;20414;-89
2022/04/30 10:43:20;;;;;;;6.68;3.13;;;;;;;;;;5134417;27;20052;-88
2022/04/30 10:46:17;;;;;;;6.78;2.97;;;;;;;;;;5134440;27;20042;-92
2022/04/30 10:49:02;;;;;;;4.88;3.28;;;;;;;;;;5119038;27;20038;-88
2022/04/30 10:51:55;;;;;;;6.18;2.85;;;;;;;;;;5119858;27;20038;-90
2022/04/30 10:54:47;;;;;;;6.57;4.13;;;;;;;;;;5133764;27;20030;-90
2022/04/30 10:57:40;;;;;;;8.77;3.33;;;;;;;;;;5118768;27;20083;-88
2022/04/30 11:00:28;;;;;;;7.28;3.90;;;;;;;;;;5134278;27;20046;-89
2022/04/30 11:03:12;;;;;;;8.00;4.18;;;;;;;;;;5104224;27;20452;-87
2022/04/30 11:05:57;;;;;;;5.85;3.50;;;;;;;;;;5118344;27;20034;-88
2022/04/30 11:08:41;;;;;;;7.20;3.33;;;;;;;;;;5118485;27;20080;-90
2022/04/30 11:11:26;;;;;;;5.47;3.40;;;;;;;;;;5118390;27;20041;-89
2022/04/30 11:14:12;;;;;;;4.72;2.92;;;;;;;;;;5118882;27;20038;-89
2022/04/30 11:16:56;;;;;;;5.68;3.40;;;;;;;;;;5118227;27;20067;-89
2022/04/30 11:19:45;;;;;;;5.03;3.47;;;;;;;;;;5118732;27;20047;-90
2022/04/30 11:22:30;;;;;;;6.53;3.80;;;;;;;;;;5118628;27;20033;-89
2022/04/30 11:25:14;;;;;;;6.45;3.45;;;;;;;;;;5118740;27;20500;-88
2022/04/30 11:28:13;;;;;;;6.15;3.05;;;13.40;96.50;;;;;;5118227;27;20046;-88
2022/04/30 11:30:59;;;;;;;8.32;3.63;;;;;;;;;;5133702;27;20554;-90
2022/04/30 11:33:47;;;;;;;5.10;3.00;;;;;;;;;;5117937;27;20079;-91
2022/04/30 11:36:38;;;;;;;6.18;3.20;;;;;;;;;;5118292;28;20114;-89
2022/04/30 11:39:23;;;;;;;5.10;3.17;;;;;;;;;;5118390;28;20064;-90
2022/04/30 11:42:15;;;;;;;6.35;2.80;;;;;;;;;;5133435;28;20114;-89
2022/04/30 11:45:00;;;;;;;8.25;3.45;;;;;;;;;;5117737;28;20486;-88
2022/04/30 11:47:49;;;;;;;6.00;3.20;;;12.80;98.00;;;;;;5117868;28;20046;-91
2022/04/30 11:50:34;;;;;;;5.57;3.85;;;;;;;;;;5118140;28;20058;-90
2022/04/30 11:53:18;;;;;;;8.32;4.53;;;;;;;;;;5118136;28;20030;-89
2022/04/30 11:56:04;;;;;;;6.47;4.00;;;;;;;;;;5103591;28;20497;-89
2022/04/30 11:58:49;;;;;;;7.13;3.67;;;;;;;;;;5117747;28;20122;-89
2022/04/30 12:01:38;;;;;;;8.80;3.92;;;;;;;;;;5119219;27;20091;-88
2022/04/30 12:04:25;;;;;;;8.40;4.22;;;;;;;;;;5122559;27;20398;-89
2022/04/30 12:07:12;;;;;;;9.30;3.45;;;;;;;;;;5122055;27;20046;-90
2022/04/30 12:09:57;;;;;;;7.40;3.60;;;;;;;;;;5126282;27;20034;-90
2022/04/30 12:12:42;;;;;;;5.63;3.15;;;;;;;;;;5127059;27;20038;-89
2022/04/30 12:15:29;;;;;;;6.63;3.05;;;;;;;;;;5122214;27;20034;-89
2022/04/30 12:27:29;;;;;;;6.38;3.45;;;;;;;;;;5137447;27;20046;-90
2022/04/30 12:30:14;;;;;;;7.18;4.10;;;;;;;;;;5122101;27;20545;-90
2022/04/30 12:33:01;;;;;;;9.45;3.55;;;;;;;;;;5121206;27;20042;-88
2022/04/30 12:35:55;;;;;;;5.80;3.50;;;;;;;;;;5121667;27;20413;-90
2022/04/30 12:38:40;;;;;;;8.15;3.60;;;;;;;;;;5121795;27;20520;-89
2022/04/30 12:41:26;;;;;;;8.05;3.50;;;;;;;;;;5121847;27;20092;-89
2022/04/30 12:44:11;;;;;;;8.35;3.80;;;;;;;;;;5107439;27;20042;-89
2022/04/30 12:46:56;;;;;;;5.10;3.45;;;;;;;;;;5121470;27;20038;-89
2022/04/30 12:49:43;;;;;;;5.30;3.70;;;;;;;;;;5121846;27;20053;-89
2022/04/30 12:52:31;;;;;;;5.38;3.58;;;;;;;;;;5108084;27;20038;-88
2022/04/30 12:55:18;;;;;;;4.97;3.53;;;;;;;;;;5121802;27;20038;-89
2022/04/30 12:58:05;;;;;;;5.13;3.30;;;;;;;;;;5121970;27;20074;-89
2022/04/30 13:00:49;;;;;;;4.35;3.10;;;;;;;;;;5122514;27;20084;-88
2022/04/30 13:03:34;;;;;;;7.15;3.63;;;;;;;;;;5137894;27;20034;-88
2022/04/30 13:06:23;;;;;;;5.60;3.50;;;;;;;;;;5123161;27;20034;-90
2022/04/30 13:15:24;;;;;;;4.15;2.90;;;;;;;;;;5159450;27;20032;-90
2022/04/30 13:18:09;;;;;;;5.70;4.22;;;;;;;;;;5143388;27;20046;-89
2022/04/30 13:20:54;;;;;;;10.05;5.65;;;;;;;;;;5141262;27;20050;-89
2022/04/30 13:23:38;;;;;;;6.82;4.25;;;;;;;;;;5123262;27;20391;-88
2022/04/30 13:26:26;;;;;;;8.18;3.88;;;;;;;;;;5124378;27;20442;-89
2022/04/30 13:29:11;;;;;;;6.40;4.20;;;;;;;;;;5107156;27;20640;-89
2022/04/30 13:31:56;;;;;;;6.35;4.95;;;;;;;;;;5122509;27;20042;-89
2022/04/30 13:34:44;;;;;;;8.73;4.55;;;;;;;;;;5122573;27;20038;-88
2022/04/30 13:37:31;;;;;;;8.32;4.32;;;;;;;;;;5121516;27;20046;-89
2022/04/30 13:40:21;;;;;;;13.55;7.70;;;;;;;;;;5120522;27;20095;-89
2022/04/30 13:43:09;;;;;;;6.82;3.72;;;;;;;;;;5120581;27;20107;-89
2022/04/30 13:45:54;;;;;;;8.77;4.10;;;;;;;;;;5120674;27;20107;-90
2022/04/30 13:48:47;;;;;;;9.02;4.20;;;;;;;;;;5120845;27;20542;-88
2022/04/30 13:51:32;;;;;;;4.88;3.95;;;;;;;;;;5107318;27;20094;-89
2022/04/30 13:54:17;;;;;;;7.20;3.92;;;;;;;;;;5119854;27;20089;-88
2022/04/30 13:57:04;;;;;;;8.27;4.18;;;;;;;;;;5120073;27;20484;-89
2022/04/30 13:59:51;;;;;;;8.80;5.63;;;;;;;;;;5119939;27;20074;-89
2022/04/30 14:02:37;;;;;;;9.90;3.67;;;;;;;;;;5119698;27;20076;-88
2022/04/30 14:05:24;;;;;;;7.95;4.07;;;;;;;;;;5119420;27;20378;-90
2022/04/30 14:08:11;;;;;;;7.18;4.18;;;;;;;;;;5119322;27;20046;-89
2022/04/30 14:10:56;;;;;;;11.38;7.28;;;;;;;;;;5135236;27;20502;-90
2022/04/30 14:16:44;;;;;;;5.10;3.10;;;;;;;;;;5135291;27;20042;-88
2022/04/30 14:19:32;;;;;;;9.25;3.55;;;;;;;;;;5119030;27;20131;-89
2022/04/30 14:22:17;;;;;;;6.72;3.92;;;;;;;;;;5119023;27;20114;-90
2022/04/30 14:25:07;;;;;;;5.68;3.50;;;;;;;;;;5118924;27;20482;-89
2022/04/30 14:27:55;;;;;;;7.13;3.72;;;;;;;;;;5119391;27;20568;-88
2022/04/30 14:30:42;;;;;;;10.23;3.97;;;;;;;;;;5105290;27;20096;-89
2022/04/30 14:33:29;;;;;;;6.75;3.78;;;;;;;;;;5135691;27;20034;-88
2022/04/30 14:36:14;;;;;;;6.82;5.30;;;;;;;;;;5118924;27;20042;-89
2022/04/30 14:39:01;;;;;;;6.88;4.07;;;;;;;;;;5105232;27;20088;-88
2022/04/30 14:41:48;;;;;;;7.57;4.25;;;;;;;;;;5119978;27;20077;-89
2022/04/30 14:44:33;;;;;;;7.00;4.78;;;;;;;;;;5118981;27;20466;-89
2022/04/30 14:47:18;;;;;;;9.02;5.25;;;;;;;;;;5118459;27;20042;-89
2022/04/30 14:50:06;;;;;;;10.20;5.03;;;;;;;;;;5118728;27;20083;-89
2022/04/30 14:52:52;;;;;;;9.77;4.82;;;;;;;;;;5118664;27;20386;-89
2022/04/30 14:55:36;;;;;;;6.65;4.30;;;;;;;;;;5134440;27;20121;-88
2022/04/30 14:58:22;;;;;;;8.93;4.00;;;;;;;;;;5118409;27;20046;-88
2022/04/30 15:01:12;;;;;;;5.40;4.05;;;;;;;;;;5118479;27;20091;-89
2022/04/30 15:03:57;;;;;;;6.05;3.90;;;;;;;;;;5118646;27;20121;-88
2022/04/30 15:06:41;;;;;;;19.80;5.32;;;;;;;;;;5118657;27;20034;-88
2022/04/30 15:09:27;;;;;;;8.73;4.25;;;;;;;;;;5118126;27;20042;-88
2022/04/30 15:12:11;;;;;;;6.95;4.07;;;;;;;;;;5118401;27;20043;-89
2022/04/30 15:14:56;;;;;;;6.53;3.70;;;;;;;;;;5118620;27;20086;-88
2022/04/30 15:17:40;;;;;;;7.90;4.20;;;;;;;;;;5118146;27;20042;-89
2022/04/30 15:20:26;;;;;;;8.48;3.78;;;;;;;;;;5113671;28;20124;-89
2022/04/30 15:23:11;;;;;;;6.63;4.05;;;;;;;;;;5112391;28;20042;-89
2022/04/30 15:25:58;;;;;;;6.85;4.10;;;;;;;;;;5112467;28;20093;-88
2022/04/30 15:28:43;;;;;;;6.22;3.40;;;;;;;;;;5098214;28;20416;-89
2022/04/30 15:31:30;;;;;;;7.13;4.20;;;;;;;;;;5112729;28;20034;-88
2022/04/30 15:34:15;;;;;;;6.15;3.97;;;;;;;;;;5111845;28;20100;-90
2022/04/30 15:37:03;;;;;;;8.02;3.85;;;;;;;;;;5111409;28;20039;-88
2022/04/30 15:39:48;;;;;;;6.60;3.78;;;;;;;;;;5112194;28;20046;-88
2022/04/30 15:42:32;;;;;;;7.88;4.18;;;;;;;;;;5111737;28;20046;-88
2022/04/30 15:45:17;;;;;;;9.23;4.38;;;;;;;;;;5112055;28;20101;-88
2022/04/30 15:51:24;;;;;;;6.10;3.93;;;;;;;;;;5118246;28;20167;-89
2022/04/30 15:54:08;;;;;;;9.38;4.97;;;;;;;;;;5113582;28;20034;-88
2022/04/30 15:56:54;;;;;;;7.78;4.25;;;;;;;;;;5112807;28;20118;-88
2022/04/30 15:59:38;;;;;;;7.10;4.47;;;;;;;;;;5111723;28;20116;-89
2022/04/30 16:02:38;;;;;;;8.30;4.50;;;;;;;;;;5111514;28;20499;-89
2022/04/30 16:05:27;;;;;;;9.88;4.88;;;;;;;;;;5098463;28;20112;-89
2022/04/30 16:08:12;;;;;;;6.68;4.47;;;;;;;;;;5111900;28;20054;-89
2022/04/30 16:10:57;;;;;;;9.23;4.40;;;;;;;;;;5097476;28;20038;-88
2022/04/30 16:13:42;;;;;;;7.65;4.82;;;;;;;;;;5097495;28;20092;-89
2022/04/30 16:16:39;;;;;;;7.20;4.32;;;;;;;;;;5111593;28;20076;-89
2022/04/30 16:19:26;;;;;;;7.72;4.57;;;;;;;;;;5113596;28;20514;-87
2022/04/30 16:22:19;;;;;;;7.43;4.45;;;;;;;;;;5098110;28;20501;-89
2022/04/30 16:25:03;;;;;;;8.13;4.57;;;;;;;;;;5097384;28;20055;-88
2022/04/30 16:27:48;;;;;;;9.32;4.70;;;;;;;;;;5111870;28;20043;-89
2022/04/30 16:30:33;;;;;;;9.60;4.65;;;;;;;;;;5111281;28;20051;-91
2022/04/30 16:33:18;;;;;;;10.57;5.03;;;;;;;;;;5111784;28;20529;-89
2022/04/30 16:36:09;;;;;;;8.07;4.43;;;;;;;;;;5111720;28;20100;-88
2022/04/30 16:39:13;;;;;;;8.50;4.63;;;;;;;;;;5111725;28;20043;-89
2022/04/30 16:42:00;;;;;;;7.45;4.55;;;;;;;;;;5099866;28;20162;-90
2022/04/30 16:44:48;;;;;;;6.68;4.40;;;;;;;;;;5111643;28;20046;-88
2022/04/30 16:47:33;;;;;;;8.02;3.90;;;;;;;;;;5113491;28;20423;-88
2022/04/30 16:53:24;;;;;;;6.13;4.07;;;;;;;;;;5113722;28;20096;-88
2022/04/30 16:59:18;;;;;;;7.95;3.80;;;;;;;;;;5116249;28;20084;-88
2022/04/30 17:02:03;;;;;;;6.93;3.95;;;;;;;;;;5114900;28;20491;-89
2022/04/30 17:04:47;;;;;;;6.38;3.67;;;;;;;;;;5115346;28;20118;-89
2022/04/30 17:07:36;;;;;;;6.57;3.40;;;;;;;;;;5115278;28;20119;-88
2022/04/30 17:10:22;;;;;;;7.05;3.35;;;;;;;;;;5116760;28;20115;-89
2022/04/30 17:13:07;;;;;;;5.85;3.72;;;;;;;;;;5101620;28;20089;-89
2022/04/30 17:15:52;;;;;;;7.90;3.92;;;;;;;;;;5115664;28;20485;-89
2022/04/30 17:18:42;;;;;;;7.60;4.70;;;;;;;;;;5115242;27;20042;-89
2022/04/30 17:21:26;;;;;;;8.50;4.20;;;;;;;;;;5120377;27;20114;-89
2022/04/30 17:24:11;;;;;;;6.60;3.78;;;;;;;;;;5120719;27;20117;-88
2022/04/30 17:26:58;;;;;;;8.10;3.45;;;;;;;;;;5120447;27;20038;-89
2022/04/30 17:29:42;;;;;;;5.22;3.55;;;;;;;;;;5120470;27;20030;-89
2022/04/30 17:38:35;;;;;;;6.93;3.80;;;;;;;;;;5135975;27;20475;-89
2022/04/30 17:41:25;;;;;;;6.20;4.32;;;;;;;;;;5120546;27;20080;-90